sensor_id;sensor_type;location;lat;lon;timestamp;P1;durP1;ratioP1;P2;durP2;ratioP2
42000;SDS011;27689;48.390;10.856;2023-09-19T00:02:00;1.50;;;1.05;;
42000;SDS011;27689;48.390;10.856;2023-09-19T00:04:44;2.53;;;1.23;;
42000;SDS011;27689;48.390;10.856;2023-09-19T00:07:28;3.13;;;1.13;;
42000;SDS011;27689;48.390;10.856;2023-09-19T00:10:12;2.03;;;1.10;;
42000;SDS011;27689;48.390;10.856;2023-09-19T00:12:59;2.60;;;1.40;;
42000;SDS011;27689;48.390;10.856;2023-09-19T00:15:44;1.58;;;1.20;;
42000;SDS011;27689;48.390;10.856;2023-09-19T00:18:32;3.30;;;1.00;;
42000;SDS011;27689;48.390;10.856;2023-09-19T00:21:18;2.63;;;1.20;;
42000;SDS011;27689;48.390;10.856;2023-09-19T00:24:06;3.35;;;1.55;;
42000;SDS011;27689;48.390;10.856;2023-09-19T00:26:50;2.58;;;1.48;;
42000;SDS011;27689;48.390;10.856;2023-09-19T00:29:34;4.13;;;1.38;;
42000;SDS011;27689;48.390;10.856;2023-09-19T00:32:18;3.38;;;1.40;;
42000;SDS011;27689;48.390;10.856;2023-09-19T00:35:02;4.40;;;1.47;;
42000;SDS011;27689;48.390;10.856;2023-09-19T00:37:47;1.90;;;1.33;;
42000;SDS011;27689;48.390;10.856;2023-09-19T00:40:31;4.00;;;1.40;;
42000;SDS011;27689;48.390;10.856;2023-09-19T00:43:16;2.25;;;1.20;;
42000;SDS011;27689;48.390;10.856;2023-09-19T00:46:00;3.73;;;1.70;;
42000;SDS011;27689;48.390;10.856;2023-09-19T00:48:46;4.38;;;1.40;;
42000;SDS011;27689;48.390;10.856;2023-09-19T00:51:30;2.10;;;1.35;;
42000;SDS011;27689;48.390;10.856;2023-09-19T00:54:15;5.68;;;1.67;;
42000;SDS011;27689;48.390;10.856;2023-09-19T00:57:01;5.03;;;1.70;;
42000;SDS011;27689;48.390;10.856;2023-09-19T01:05:16;2.53;;;1.70;;
42000;SDS011;27689;48.390;10.856;2023-09-19T01:10:55;3.78;;;1.77;;
42000;SDS011;27689;48.390;10.856;2023-09-19T01:16:57;4.05;;;1.65;;
42000;SDS011;27689;48.390;10.856;2023-09-19T01:22:53;3.35;;;1.88;;
42000;SDS011;27689;48.390;10.856;2023-09-19T01:28:53;3.00;;;1.90;;
42000;SDS011;27689;48.390;10.856;2023-09-19T01:31:42;5.80;;;1.77;;
42000;SDS011;27689;48.390;10.856;2023-09-19T01:34:26;2.63;;;1.70;;
42000;SDS011;27689;48.390;10.856;2023-09-19T01:37:10;4.93;;;2.05;;
42000;SDS011;27689;48.390;10.856;2023-09-19T01:39:58;5.00;;;2.17;;
42000;SDS011;27689;48.390;10.856;2023-09-19T01:43:02;3.45;;;2.15;;
42000;SDS011;27689;48.390;10.856;2023-09-19T01:46:38;5.57;;;1.75;;
42000;SDS011;27689;48.390;10.856;2023-09-19T01:49:18;3.03;;;1.80;;
42000;SDS011;27689;48.390;10.856;2023-09-19T01:52:11;2.72;;;1.77;;
42000;SDS011;27689;48.390;10.856;2023-09-19T01:55:00;2.28;;;1.70;;
42000;SDS011;27689;48.390;10.856;2023-09-19T02:01:06;3.80;;;2.03;;
42000;SDS011;27689;48.390;10.856;2023-09-19T02:03:54;2.63;;;1.80;;
42000;SDS011;27689;48.390;10.856;2023-09-19T02:06:40;5.10;;;1.45;;
42000;SDS011;27689;48.390;10.856;2023-09-19T02:09:26;2.70;;;1.92;;
42000;SDS011;27689;48.390;10.856;2023-09-19T02:12:10;6.63;;;2.25;;
42000;SDS011;27689;48.390;10.856;2023-09-19T02:14:53;4.03;;;1.98;;
42000;SDS011;27689;48.390;10.856;2023-09-19T02:17:38;2.45;;;2.00;;
42000;SDS011;27689;48.390;10.856;2023-09-19T02:20:22;2.47;;;1.77;;
42000;SDS011;27689;48.390;10.856;2023-09-19T02:23:06;2.45;;;1.92;;
42000;SDS011;27689;48.390;10.856;2023-09-19T02:25:54;2.55;;;1.60;;
42000;SDS011;27689;48.390;10.856;2023-09-19T02:28:40;3.78;;;1.63;;
42000;SDS011;27689;48.390;10.856;2023-09-19T02:31:24;3.95;;;1.92;;
42000;SDS011;27689;48.390;10.856;2023-09-19T02:34:08;3.80;;;1.77;;
42000;SDS011;27689;48.390;10.856;2023-09-19T02:36:52;4.97;;;2.60;;
42000;SDS011;27689;48.390;10.856;2023-09-19T02:39:38;3.58;;;1.75;;
42000;SDS011;27689;48.390;10.856;2023-09-19T02:42:23;4.03;;;1.80;;
42000;SDS011;27689;48.390;10.856;2023-09-19T02:45:07;3.90;;;1.73;;
42000;SDS011;27689;48.390;10.856;2023-09-19T02:50:35;2.63;;;1.60;;
42000;SDS011;27689;48.390;10.856;2023-09-19T02:53:19;3.97;;;1.75;;
42000;SDS011;27689;48.390;10.856;2023-09-19T02:56:03;2.92;;;1.50;;
42000;SDS011;27689;48.390;10.856;2023-09-19T02:58:48;6.57;;;1.70;;
42000;SDS011;27689;48.390;10.856;2023-09-19T03:01:32;2.50;;;1.60;;
42000;SDS011;27689;48.390;10.856;2023-09-19T03:04:17;4.55;;;1.55;;
42000;SDS011;27689;48.390;10.856;2023-09-19T03:07:03;4.75;;;1.63;;
42000;SDS011;27689;48.390;10.856;2023-09-19T03:09:47;3.25;;;1.67;;
42000;SDS011;27689;48.390;10.856;2023-09-19T03:15:17;2.83;;;1.73;;
42000;SDS011;27689;48.390;10.856;2023-09-19T03:18:02;3.55;;;1.60;;
42000;SDS011;27689;48.390;10.856;2023-09-19T03:20:52;4.60;;;1.67;;
42000;SDS011;27689;48.390;10.856;2023-09-19T03:23:38;3.72;;;1.40;;
42000;SDS011;27689;48.390;10.856;2023-09-19T03:26:22;3.40;;;1.93;;
42000;SDS011;27689;48.390;10.856;2023-09-19T03:29:06;3.05;;;1.50;;
42000;SDS011;27689;48.390;10.856;2023-09-19T03:31:50;2.63;;;1.65;;
42000;SDS011;27689;48.390;10.856;2023-09-19T03:34:35;3.55;;;1.50;;
42000;SDS011;27689;48.390;10.856;2023-09-19T03:37:21;3.15;;;1.10;;
42000;SDS011;27689;48.390;10.856;2023-09-19T03:40:04;3.97;;;1.58;;
42000;SDS011;27689;48.390;10.856;2023-09-19T03:42:49;2.33;;;1.50;;
42000;SDS011;27689;48.390;10.856;2023-09-19T03:45:33;3.28;;;1.73;;
42000;SDS011;27689;48.390;10.856;2023-09-19T03:48:17;3.33;;;1.40;;
42000;SDS011;27689;48.390;10.856;2023-09-19T03:51:01;3.28;;;1.35;;
42000;SDS011;27689;48.390;10.856;2023-09-19T03:56:30;2.13;;;1.45;;
42000;SDS011;27689;48.390;10.856;2023-09-19T03:59:15;4.22;;;1.50;;
42000;SDS011;27689;48.390;10.856;2023-09-19T04:01:59;4.85;;;1.90;;
42000;SDS011;27689;48.390;10.856;2023-09-19T04:04:43;3.33;;;1.60;;
42000;SDS011;27689;48.390;10.856;2023-09-19T04:07:27;4.22;;;1.70;;
42000;SDS011;27689;48.390;10.856;2023-09-19T04:10:12;3.08;;;1.77;;
42000;SDS011;27689;48.390;10.856;2023-09-19T04:12:58;4.72;;;1.83;;
42000;SDS011;27689;48.390;10.856;2023-09-19T04:15:42;2.45;;;1.55;;
42000;SDS011;27689;48.390;10.856;2023-09-19T04:18:26;1.80;;;1.60;;
42000;SDS011;27689;48.390;10.856;2023-09-19T04:21:10;3.70;;;1.65;;
42000;SDS011;27689;48.390;10.856;2023-09-19T04:23:54;5.00;;;1.75;;
42000;SDS011;27689;48.390;10.856;2023-09-19T04:26:38;2.55;;;1.60;;
42000;SDS011;27689;48.390;10.856;2023-09-19T04:29:22;3.53;;;1.77;;
42000;SDS011;27689;48.390;10.856;2023-09-19T04:32:06;2.40;;;1.40;;
42000;SDS011;27689;48.390;10.856;2023-09-19T04:34:51;2.97;;;1.38;;
42000;SDS011;27689;48.390;10.856;2023-09-19T04:37:38;3.08;;;1.75;;
42000;SDS011;27689;48.390;10.856;2023-09-19T04:40:23;2.88;;;1.55;;
42000;SDS011;27689;48.390;10.856;2023-09-19T04:43:10;2.85;;;1.88;;
42000;SDS011;27689;48.390;10.856;2023-09-19T04:45:54;2.78;;;1.55;;
42000;SDS011;27689;48.390;10.856;2023-09-19T04:48:39;3.22;;;1.80;;
42000;SDS011;27689;48.390;10.856;2023-09-19T04:51:23;5.13;;;1.70;;
42000;SDS011;27689;48.390;10.856;2023-09-19T04:54:09;3.67;;;1.77;;
42000;SDS011;27689;48.390;10.856;2023-09-19T04:56:53;2.15;;;1.73;;
42000;SDS011;27689;48.390;10.856;2023-09-19T04:59:37;4.90;;;1.80;;
42000;SDS011;27689;48.390;10.856;2023-09-19T05:02:22;2.95;;;1.90;;
42000;SDS011;27689;48.390;10.856;2023-09-19T05:05:06;2.05;;;1.30;;
42000;SDS011;27689;48.390;10.856;2023-09-19T05:07:52;5.18;;;2.40;;
42000;SDS011;27689;48.390;10.856;2023-09-19T05:10:39;5.97;;;2.00;;
42000;SDS011;27689;48.390;10.856;2023-09-19T05:13:23;3.40;;;2.05;;
42000;SDS011;27689;48.390;10.856;2023-09-19T05:16:08;4.10;;;2.00;;
42000;SDS011;27689;48.390;10.856;2023-09-19T05:18:53;4.80;;;2.13;;
42000;SDS011;27689;48.390;10.856;2023-09-19T05:21:37;2.63;;;1.45;;
42000;SDS011;27689;48.390;10.856;2023-09-19T05:27:07;3.97;;;1.90;;
42000;SDS011;27689;48.390;10.856;2023-09-19T05:29:51;2.90;;;1.60;;
42000;SDS011;27689;48.390;10.856;2023-09-19T05:32:36;3.72;;;1.90;;
42000;SDS011;27689;48.390;10.856;2023-09-19T05:35:20;3.42;;;1.75;;
42000;SDS011;27689;48.390;10.856;2023-09-19T05:38:08;2.30;;;1.70;;
42000;SDS011;27689;48.390;10.856;2023-09-19T05:40:56;2.88;;;1.60;;
42000;SDS011;27689;48.390;10.856;2023-09-19T05:43:40;2.67;;;1.70;;
42000;SDS011;27689;48.390;10.856;2023-09-19T05:46:24;2.72;;;1.63;;
42000;SDS011;27689;48.390;10.856;2023-09-19T05:49:13;4.07;;;1.85;;
42000;SDS011;27689;48.390;10.856;2023-09-19T05:51:57;3.03;;;1.50;;
42000;SDS011;27689;48.390;10.856;2023-09-19T05:54:42;3.80;;;1.90;;
42000;SDS011;27689;48.390;10.856;2023-09-19T05:57:26;3.00;;;1.65;;
42000;SDS011;27689;48.390;10.856;2023-09-19T06:00:14;3.28;;;1.77;;
42000;SDS011;27689;48.390;10.856;2023-09-19T06:02:58;3.97;;;1.63;;
42000;SDS011;27689;48.390;10.856;2023-09-19T06:08:27;2.78;;;1.65;;
42000;SDS011;27689;48.390;10.856;2023-09-19T06:11:12;4.22;;;1.52;;
42000;SDS011;27689;48.390;10.856;2023-09-19T06:13:56;4.00;;;1.80;;
42000;SDS011;27689;48.390;10.856;2023-09-19T06:16:40;4.85;;;1.75;;
42000;SDS011;27689;48.390;10.856;2023-09-19T06:19:25;5.95;;;1.70;;
42000;SDS011;27689;48.390;10.856;2023-09-19T06:22:09;4.07;;;1.48;;
42000;SDS011;27689;48.390;10.856;2023-09-19T06:24:54;3.92;;;1.80;;
42000;SDS011;27689;48.390;10.856;2023-09-19T06:27:38;2.65;;;1.30;;
42000;SDS011;27689;48.390;10.856;2023-09-19T06:30:26;3.33;;;1.45;;
42000;SDS011;27689;48.390;10.856;2023-09-19T06:33:10;2.92;;;1.60;;
42000;SDS011;27689;48.390;10.856;2023-09-19T06:35:56;3.20;;;1.27;;
42000;SDS011;27689;48.390;10.856;2023-09-19T06:38:43;3.30;;;1.33;;
42000;SDS011;27689;48.390;10.856;2023-09-19T06:41:27;1.53;;;1.13;;
42000;SDS011;27689;48.390;10.856;2023-09-19T06:44:13;4.45;;;1.50;;
42000;SDS011;27689;48.390;10.856;2023-09-19T06:46:57;4.37;;;1.57;;
42000;SDS011;27689;48.390;10.856;2023-09-19T06:49:42;3.05;;;1.70;;
42000;SDS011;27689;48.390;10.856;2023-09-19T06:52:29;4.22;;;1.25;;
42000;SDS011;27689;48.390;10.856;2023-09-19T06:55:13;2.07;;;1.10;;
42000;SDS011;27689;48.390;10.856;2023-09-19T06:57:59;2.50;;;1.40;;
42000;SDS011;27689;48.390;10.856;2023-09-19T07:00:43;3.85;;;1.65;;
42000;SDS011;27689;48.390;10.856;2023-09-19T07:03:28;10.75;;;1.50;;
42000;SDS011;27689;48.390;10.856;2023-09-19T07:06:12;3.88;;;1.60;;
42000;SDS011;27689;48.390;10.856;2023-09-19T07:08:56;3.95;;;1.30;;
42000;SDS011;27689;48.390;10.856;2023-09-19T07:11:40;2.88;;;1.48;;
42000;SDS011;27689;48.390;10.856;2023-09-19T07:14:24;1.58;;;1.10;;
42000;SDS011;27689;48.390;10.856;2023-09-19T07:17:08;2.43;;;1.50;;
42000;SDS011;27689;48.390;10.856;2023-09-19T07:19:53;1.65;;;1.13;;
42000;SDS011;27689;48.390;10.856;2023-09-19T07:22:37;3.42;;;1.48;;
42000;SDS011;27689;48.390;10.856;2023-09-19T07:25:23;2.40;;;1.50;;
42000;SDS011;27689;48.390;10.856;2023-09-19T07:28:07;5.00;;;1.80;;
42000;SDS011;27689;48.390;10.856;2023-09-19T07:30:51;3.30;;;1.42;;
42000;SDS011;27689;48.390;10.856;2023-09-19T07:33:36;2.40;;;1.15;;
42000;SDS011;27689;48.390;10.856;2023-09-19T07:36:20;3.42;;;1.67;;
42000;SDS011;27689;48.390;10.856;2023-09-19T07:39:04;4.80;;;1.35;;
42000;SDS011;27689;48.390;10.856;2023-09-19T07:41:50;2.55;;;1.65;;
42000;SDS011;27689;48.390;10.856;2023-09-19T07:44:37;2.85;;;1.13;;
42000;SDS011;27689;48.390;10.856;2023-09-19T07:47:22;4.45;;;1.48;;
42000;SDS011;27689;48.390;10.856;2023-09-19T07:50:05;2.50;;;1.15;;
42000;SDS011;27689;48.390;10.856;2023-09-19T07:52:51;2.05;;;1.20;;
42000;SDS011;27689;48.390;10.856;2023-09-19T07:55:36;2.25;;;1.40;;
42000;SDS011;27689;48.390;10.856;2023-09-19T07:58:21;6.95;;;1.67;;
42000;SDS011;27689;48.390;10.856;2023-09-19T08:01:06;1.92;;;1.35;;
42000;SDS011;27689;48.390;10.856;2023-09-19T08:03:52;1.85;;;1.17;;
42000;SDS011;27689;48.390;10.856;2023-09-19T08:06:36;3.20;;;1.30;;
42000;SDS011;27689;48.390;10.856;2023-09-19T08:09:22;4.05;;;1.40;;
42000;SDS011;27689;48.390;10.856;2023-09-19T08:12:06;2.67;;;1.42;;
42000;SDS011;27689;48.390;10.856;2023-09-19T08:14:54;2.60;;;1.33;;
42000;SDS011;27689;48.390;10.856;2023-09-19T08:17:38;2.13;;;1.10;;
42000;SDS011;27689;48.390;10.856;2023-09-19T08:20:23;2.08;;;1.02;;
42000;SDS011;27689;48.390;10.856;2023-09-19T08:23:07;1.45;;;0.80;;
42000;SDS011;27689;48.390;10.856;2023-09-19T08:25:55;2.90;;;1.00;;
42000;SDS011;27689;48.390;10.856;2023-09-19T08:28:40;2.65;;;1.10;;
42000;SDS011;27689;48.390;10.856;2023-09-19T08:31:24;1.42;;;0.95;;
42000;SDS011;27689;48.390;10.856;2023-09-19T08:34:10;1.48;;;1.00;;
42000;SDS011;27689;48.390;10.856;2023-09-19T08:36:54;2.42;;;0.90;;
42000;SDS011;27689;48.390;10.856;2023-09-19T08:39:41;3.33;;;1.33;;
42000;SDS011;27689;48.390;10.856;2023-09-19T08:42:26;2.20;;;0.95;;
42000;SDS011;27689;48.390;10.856;2023-09-19T08:45:10;1.50;;;0.90;;
42000;SDS011;27689;48.390;10.856;2023-09-19T08:51:12;3.17;;;1.00;;
42000;SDS011;27689;48.390;10.856;2023-09-19T08:54:08;1.63;;;0.68;;
42000;SDS011;27689;48.390;10.856;2023-09-19T08:56:57;1.95;;;0.88;;
42000;SDS011;27689;48.390;10.856;2023-09-19T08:59:46;1.02;;;0.77;;
42000;SDS011;27689;48.390;10.856;2023-09-19T09:02:31;0.95;;;0.70;;
42000;SDS011;27689;48.390;10.856;2023-09-19T09:05:17;1.55;;;0.90;;
42000;SDS011;27689;48.390;10.856;2023-09-19T09:08:06;2.60;;;1.20;;
42000;SDS011;27689;48.390;10.856;2023-09-19T09:10:51;1.27;;;0.60;;
42000;SDS011;27689;48.390;10.856;2023-09-19T09:13:35;1.48;;;1.00;;
42000;SDS011;27689;48.390;10.856;2023-09-19T09:16:20;2.58;;;0.90;;
42000;SDS011;27689;48.390;10.856;2023-09-19T09:19:04;1.20;;;0.80;;
42000;SDS011;27689;48.390;10.856;2023-09-19T09:21:48;4.63;;;1.15;;
42000;SDS011;27689;48.390;10.856;2023-09-19T09:24:32;2.47;;;0.82;;
42000;SDS011;27689;48.390;10.856;2023-09-19T09:27:21;1.45;;;0.90;;
42000;SDS011;27689;48.390;10.856;2023-09-19T09:30:08;2.67;;;0.98;;
42000;SDS011;27689;48.390;10.856;2023-09-19T09:32:59;2.58;;;0.98;;
42000;SDS011;27689;48.390;10.856;2023-09-19T09:35:53;0.75;;;0.63;;
42000;SDS011;27689;48.390;10.856;2023-09-19T09:38:45;1.63;;;0.60;;
42000;SDS011;27689;48.390;10.856;2023-09-19T09:41:37;1.40;;;0.93;;
42000;SDS011;27689;48.390;10.856;2023-09-19T09:44:23;2.92;;;0.95;;
42000;SDS011;27689;48.390;10.856;2023-09-19T09:47:07;1.60;;;0.87;;
42000;SDS011;27689;48.390;10.856;2023-09-19T09:50:10;3.90;;;0.70;;
42000;SDS011;27689;48.390;10.856;2023-09-19T09:53:01;2.50;;;0.90;;
42000;SDS011;27689;48.390;10.856;2023-09-19T09:56:00;1.95;;;0.70;;
42000;SDS011;27689;48.390;10.856;2023-09-19T09:58:50;1.52;;;0.70;;
42000;SDS011;27689;48.390;10.856;2023-09-19T10:01:48;2.35;;;0.60;;
42000;SDS011;27689;48.390;10.856;2023-09-19T10:04:37;1.75;;;0.82;;
42000;SDS011;27689;48.390;10.856;2023-09-19T10:07:28;1.45;;;0.70;;
42000;SDS011;27689;48.390;10.856;2023-09-19T10:10:34;0.82;;;0.70;;
42000;SDS011;27689;48.390;10.856;2023-09-19T10:13:25;0.98;;;0.60;;
42000;SDS011;27689;48.390;10.856;2023-09-19T10:16:12;1.30;;;0.75;;
42000;SDS011;27689;48.390;10.856;2023-09-19T10:18:58;1.42;;;0.75;;
42000;SDS011;27689;48.390;10.856;2023-09-19T10:21:45;2.25;;;0.93;;
42000;SDS011;27689;48.390;10.856;2023-09-19T10:24:30;1.42;;;0.85;;
42000;SDS011;27689;48.390;10.856;2023-09-19T10:27:20;1.95;;;0.90;;
42000;SDS011;27689;48.390;10.856;2023-09-19T10:30:05;3.67;;;0.80;;
42000;SDS011;27689;48.390;10.856;2023-09-19T10:32:56;4.85;;;1.13;;
42000;SDS011;27689;48.390;10.856;2023-09-19T10:35:48;1.67;;;0.90;;
42000;SDS011;27689;48.390;10.856;2023-09-19T10:38:35;1.55;;;0.90;;
42000;SDS011;27689;48.390;10.856;2023-09-19T10:41:24;2.63;;;1.02;;
42000;SDS011;27689;48.390;10.856;2023-09-19T10:44:08;1.50;;;0.88;;
42000;SDS011;27689;48.390;10.856;2023-09-19T10:46:53;1.25;;;0.85;;
42000;SDS011;27689;48.390;10.856;2023-09-19T10:49:44;1.65;;;0.90;;
42000;SDS011;27689;48.390;10.856;2023-09-19T10:52:32;0.90;;;0.70;;
42000;SDS011;27689;48.390;10.856;2023-09-19T10:55:18;1.48;;;0.70;;
42000;SDS011;27689;48.390;10.856;2023-09-19T10:58:07;1.77;;;0.77;;
42000;SDS011;27689;48.390;10.856;2023-09-19T11:00:59;4.35;;;1.00;;
42000;SDS011;27689;48.390;10.856;2023-09-19T11:03:51;1.40;;;0.90;;
42000;SDS011;27689;48.390;10.856;2023-09-19T11:07:11;1.25;;;0.82;;
42000;SDS011;27689;48.390;10.856;2023-09-19T11:09:58;1.45;;;0.80;;
42000;SDS011;27689;48.390;10.856;2023-09-19T11:24:27;2.28;;;0.82;;
42000;SDS011;27689;48.390;10.856;2023-09-19T11:27:14;3.97;;;0.70;;
42000;SDS011;27689;48.390;10.856;2023-09-19T11:33:20;2.42;;;0.93;;
42000;SDS011;27689;48.390;10.856;2023-09-19T11:36:36;3.55;;;1.00;;
42000;SDS011;27689;48.390;10.856;2023-09-19T11:39:26;1.83;;;1.00;;
42000;SDS011;27689;48.390;10.856;2023-09-19T11:48:24;1.60;;;0.80;;
42000;SDS011;27689;48.390;10.856;2023-09-19T11:51:11;2.10;;;1.10;;
42000;SDS011;27689;48.390;10.856;2023-09-19T11:54:03;2.45;;;1.00;;
42000;SDS011;27689;48.390;10.856;2023-09-19T11:56:48;1.50;;;0.80;;
42000;SDS011;27689;48.390;10.856;2023-09-19T11:59:37;1.52;;;0.75;;
42000;SDS011;27689;48.390;10.856;2023-09-19T12:02:41;1.50;;;0.75;;
42000;SDS011;27689;48.390;10.856;2023-09-19T12:05:30;1.85;;;0.70;;
42000;SDS011;27689;48.390;10.856;2023-09-19T12:08:17;1.10;;;0.70;;
42000;SDS011;27689;48.390;10.856;2023-09-19T12:11:04;1.55;;;0.70;;
42000;SDS011;27689;48.390;10.856;2023-09-19T12:13:51;1.73;;;0.85;;
42000;SDS011;27689;48.390;10.856;2023-09-19T12:16:37;1.00;;;0.80;;
42000;SDS011;27689;48.390;10.856;2023-09-19T12:19:22;1.60;;;1.00;;
42000;SDS011;27689;48.390;10.856;2023-09-19T12:22:07;1.02;;;0.68;;
42000;SDS011;27689;48.390;10.856;2023-09-19T12:24:53;2.65;;;0.77;;
42000;SDS011;27689;48.390;10.856;2023-09-19T12:27:44;1.55;;;0.73;;
42000;SDS011;27689;48.390;10.856;2023-09-19T12:30:30;1.60;;;0.70;;
42000;SDS011;27689;48.390;10.856;2023-09-19T12:33:20;2.72;;;0.88;;
42000;SDS011;27689;48.390;10.856;2023-09-19T12:36:21;2.45;;;0.70;;
42000;SDS011;27689;48.390;10.856;2023-09-19T12:39:22;1.65;;;0.88;;
42000;SDS011;27689;48.390;10.856;2023-09-19T12:42:09;2.88;;;0.80;;
42000;SDS011;27689;48.390;10.856;2023-09-19T12:44:54;3.50;;;0.73;;
42000;SDS011;27689;48.390;10.856;2023-09-19T12:47:39;3.08;;;0.80;;
42000;SDS011;27689;48.390;10.856;2023-09-19T12:50:27;1.90;;;0.88;;
42000;SDS011;27689;48.390;10.856;2023-09-19T12:53:24;1.08;;;0.80;;
42000;SDS011;27689;48.390;10.856;2023-09-19T12:56:10;2.30;;;0.80;;
42000;SDS011;27689;48.390;10.856;2023-09-19T12:58:57;1.40;;;0.77;;
42000;SDS011;27689;48.390;10.856;2023-09-19T13:01:46;1.90;;;0.70;;
42000;SDS011;27689;48.390;10.856;2023-09-19T13:04:53;2.05;;;1.02;;
42000;SDS011;27689;48.390;10.856;2023-09-19T13:07:41;1.17;;;0.70;;
42000;SDS011;27689;48.390;10.856;2023-09-19T13:10:27;1.13;;;0.82;;
42000;SDS011;27689;48.390;10.856;2023-09-19T13:13:23;1.52;;;0.77;;
42000;SDS011;27689;48.390;10.856;2023-09-19T13:16:11;1.27;;;0.80;;
42000;SDS011;27689;48.390;10.856;2023-09-19T13:18:57;1.48;;;0.70;;
42000;SDS011;27689;48.390;10.856;2023-09-19T13:21:41;2.07;;;0.70;;
42000;SDS011;27689;48.390;10.856;2023-09-19T13:24:33;1.35;;;0.80;;
42000;SDS011;27689;48.390;10.856;2023-09-19T13:27:18;2.65;;;0.88;;
42000;SDS011;27689;48.390;10.856;2023-09-19T13:30:03;0.87;;;0.80;;
42000;SDS011;27689;48.390;10.856;2023-09-19T13:32:49;2.80;;;0.90;;
42000;SDS011;27689;48.390;10.856;2023-09-19T13:35:33;4.03;;;1.10;;
42000;SDS011;27689;48.390;10.856;2023-09-19T13:38:17;3.40;;;1.03;;
42000;SDS011;27689;48.390;10.856;2023-09-19T13:43:45;1.33;;;0.77;;
42000;SDS011;27689;48.390;10.856;2023-09-19T13:46:32;1.63;;;1.13;;
42000;SDS011;27689;48.390;10.856;2023-09-19T13:49:18;3.85;;;1.00;;
42000;SDS011;27689;48.390;10.856;2023-09-19T13:52:02;1.58;;;1.00;;
42000;SDS011;27689;48.390;10.856;2023-09-19T13:54:53;1.52;;;1.00;;
42000;SDS011;27689;48.390;10.856;2023-09-19T13:57:40;3.97;;;0.80;;
42000;SDS011;27689;48.390;10.856;2023-09-19T14:00:24;3.33;;;0.80;;
42000;SDS011;27689;48.390;10.856;2023-09-19T14:03:08;1.83;;;0.93;;
42000;SDS011;27689;48.390;10.856;2023-09-19T14:05:54;2.80;;;0.93;;
42000;SDS011;27689;48.390;10.856;2023-09-19T14:08:38;2.13;;;0.85;;
42000;SDS011;27689;48.390;10.856;2023-09-19T14:11:23;1.60;;;1.00;;
42000;SDS011;27689;48.390;10.856;2023-09-19T14:14:06;1.42;;;1.00;;
42000;SDS011;27689;48.390;10.856;2023-09-19T14:16:50;2.22;;;0.77;;
42000;SDS011;27689;48.390;10.856;2023-09-19T14:19:40;2.05;;;0.88;;
42000;SDS011;27689;48.390;10.856;2023-09-19T14:22:25;2.00;;;1.10;;
42000;SDS011;27689;48.390;10.856;2023-09-19T14:25:09;1.45;;;0.65;;
42000;SDS011;27689;48.390;10.856;2023-09-19T14:27:53;1.23;;;0.77;;
42000;SDS011;27689;48.390;10.856;2023-09-19T14:30:37;3.27;;;1.20;;
42000;SDS011;27689;48.390;10.856;2023-09-19T14:33:22;1.33;;;0.85;;
42000;SDS011;27689;48.390;10.856;2023-09-19T14:36:09;2.77;;;0.93;;
42000;SDS011;27689;48.390;10.856;2023-09-19T14:38:55;2.22;;;0.90;;
42000;SDS011;27689;48.390;10.856;2023-09-19T14:41:39;2.17;;;0.98;;
42000;SDS011;27689;48.390;10.856;2023-09-19T14:44:23;1.80;;;1.00;;
42000;SDS011;27689;48.390;10.856;2023-09-19T14:47:07;2.93;;;1.03;;
42000;SDS011;27689;48.390;10.856;2023-09-19T14:49:51;1.92;;;0.93;;
42000;SDS011;27689;48.390;10.856;2023-09-19T14:52:35;4.00;;;1.00;;
42000;SDS011;27689;48.390;10.856;2023-09-19T14:55:19;2.38;;;0.90;;
42000;SDS011;27689;48.390;10.856;2023-09-19T14:58:03;2.40;;;1.08;;
42000;SDS011;27689;48.390;10.856;2023-09-19T15:00:47;2.37;;;1.17;;
42000;SDS011;27689;48.390;10.856;2023-09-19T15:03:32;2.45;;;0.85;;
42000;SDS011;27689;48.390;10.856;2023-09-19T15:06:18;1.90;;;1.00;;
42000;SDS011;27689;48.390;10.856;2023-09-19T15:09:03;1.80;;;0.93;;
42000;SDS011;27689;48.390;10.856;2023-09-19T15:11:49;2.30;;;1.33;;
42000;SDS011;27689;48.390;10.856;2023-09-19T15:14:35;3.50;;;1.00;;
42000;SDS011;27689;48.390;10.856;2023-09-19T15:17:20;1.83;;;1.20;;
42000;SDS011;27689;48.390;10.856;2023-09-19T15:20:04;1.50;;;0.70;;
42000;SDS011;27689;48.390;10.856;2023-09-19T15:22:52;3.28;;;1.15;;
42000;SDS011;27689;48.390;10.856;2023-09-19T15:25:36;2.38;;;1.05;;
42000;SDS011;27689;48.390;10.856;2023-09-19T15:28:20;4.00;;;0.90;;
42000;SDS011;27689;48.390;10.856;2023-09-19T15:31:09;2.00;;;0.77;;
42000;SDS011;27689;48.390;10.856;2023-09-19T15:33:54;1.35;;;0.80;;
42000;SDS011;27689;48.390;10.856;2023-09-19T15:36:38;2.83;;;1.02;;
42000;SDS011;27689;48.390;10.856;2023-09-19T15:39:22;2.40;;;1.00;;
42000;SDS011;27689;48.390;10.856;2023-09-19T15:42:06;1.52;;;0.85;;
42000;SDS011;27689;48.390;10.856;2023-09-19T15:44:50;2.50;;;1.30;;
42000;SDS011;27689;48.390;10.856;2023-09-19T15:47:34;1.03;;;0.80;;
42000;SDS011;27689;48.390;10.856;2023-09-19T15:50:19;1.88;;;0.93;;
42000;SDS011;27689;48.390;10.856;2023-09-19T15:53:03;3.28;;;0.93;;
42000;SDS011;27689;48.390;10.856;2023-09-19T15:55:47;1.60;;;0.90;;
42000;SDS011;27689;48.390;10.856;2023-09-19T15:58:31;1.80;;;1.13;;
42000;SDS011;27689;48.390;10.856;2023-09-19T16:01:16;2.25;;;1.05;;
42000;SDS011;27689;48.390;10.856;2023-09-19T16:04:01;1.15;;;0.95;;
42000;SDS011;27689;48.390;10.856;2023-09-19T16:09:30;1.25;;;0.90;;
42000;SDS011;27689;48.390;10.856;2023-09-19T16:12:14;1.27;;;0.70;;
42000;SDS011;27689;48.390;10.856;2023-09-19T16:14:58;2.42;;;1.02;;
42000;SDS011;27689;48.390;10.856;2023-09-19T16:17:42;1.85;;;0.90;;
42000;SDS011;27689;48.390;10.856;2023-09-19T16:20:26;1.75;;;0.98;;
42000;SDS011;27689;48.390;10.856;2023-09-19T16:23:11;3.40;;;1.02;;
42000;SDS011;27689;48.390;10.856;2023-09-19T16:26:02;1.25;;;0.90;;
42000;SDS011;27689;48.390;10.856;2023-09-19T16:28:53;2.45;;;1.00;;
42000;SDS011;27689;48.390;10.856;2023-09-19T16:31:40;1.42;;;0.98;;
42000;SDS011;27689;48.390;10.856;2023-09-19T16:34:25;1.15;;;0.77;;
42000;SDS011;27689;48.390;10.856;2023-09-19T16:37:09;2.53;;;1.05;;
42000;SDS011;27689;48.390;10.856;2023-09-19T16:39:53;1.47;;;0.77;;
42000;SDS011;27689;48.390;10.856;2023-09-19T16:42:37;1.48;;;0.90;;
42000;SDS011;27689;48.390;10.856;2023-09-19T16:48:06;2.55;;;0.98;;
42000;SDS011;27689;48.390;10.856;2023-09-19T16:50:50;1.55;;;1.02;;
42000;SDS011;27689;48.390;10.856;2023-09-19T16:53:35;2.63;;;1.45;;
42000;SDS011;27689;48.390;10.856;2023-09-19T16:56:19;2.97;;;1.23;;
42000;SDS011;27689;48.390;10.856;2023-09-19T16:59:03;2.53;;;1.00;;
42000;SDS011;27689;48.390;10.856;2023-09-19T17:01:49;2.70;;;1.27;;
42000;SDS011;27689;48.390;10.856;2023-09-19T17:04:33;2.78;;;1.20;;
42000;SDS011;27689;48.390;10.856;2023-09-19T17:07:17;1.60;;;1.10;;
42000;SDS011;27689;48.390;10.856;2023-09-19T17:10:01;2.42;;;1.30;;
42000;SDS011;27689;48.390;10.856;2023-09-19T17:12:45;1.83;;;1.13;;
42000;SDS011;27689;48.390;10.856;2023-09-19T17:15:29;2.88;;;1.25;;
42000;SDS011;27689;48.390;10.856;2023-09-19T17:18:15;3.63;;;1.20;;
42000;SDS011;27689;48.390;10.856;2023-09-19T17:20:59;2.13;;;0.80;;
42000;SDS011;27689;48.390;10.856;2023-09-19T17:23:44;1.92;;;1.13;;
42000;SDS011;27689;48.390;10.856;2023-09-19T17:26:29;2.37;;;1.27;;
42000;SDS011;27689;48.390;10.856;2023-09-19T17:29:13;2.78;;;1.17;;
42000;SDS011;27689;48.390;10.856;2023-09-19T17:31:57;2.30;;;1.20;;
42000;SDS011;27689;48.390;10.856;2023-09-19T17:34:41;1.83;;;1.10;;